createdAt,value
2023-01-24T00:00:53.487Z,99280.34
2023-01-24T00:03:22.201Z,99272.00
2023-01-24T00:05:50.060Z,99273.59
2023-01-24T00:08:20.385Z,99276.38
2023-01-24T00:10:48.708Z,99276.53
2023-01-24T00:13:17.399Z,99279.75
2023-01-24T00:15:44.698Z,99266.22
2023-01-24T00:18:12.080Z,99274.66
2023-01-24T00:20:39.413Z,99275.53
2023-01-24T00:23:06.454Z,99272.78
2023-01-24T00:25:33.533Z,99276.34
2023-01-24T00:28:00.591Z,99278.38
2023-01-24T00:30:27.690Z,99282.84
2023-01-24T00:32:54.836Z,99287.22
2023-01-24T00:35:22.498Z,99283.72
2023-01-24T00:37:50.278Z,99284.13
2023-01-24T00:40:17.508Z,99284.53
2023-01-24T00:42:44.825Z,99290.78
2023-01-24T00:45:12.129Z,99292.38
2023-01-24T00:47:39.168Z,99290.00
2023-01-24T00:50:08.597Z,99287.19
2023-01-24T00:52:37.098Z,99303.34
2023-01-24T00:55:04.325Z,99297.78
2023-01-24T00:57:31.455Z,99299.72
2023-01-24T00:59:58.686Z,99291.38
2023-01-24T01:02:26.666Z,99302.75
2023-01-24T01:04:53.779Z,99297.72
2023-01-24T01:07:21.792Z,99310.41
2023-01-24T01:09:48.945Z,99319.50
2023-01-24T01:12:16.147Z,99316.75
2023-01-24T01:14:43.179Z,99312.84
2023-01-24T01:17:10.285Z,99320.72
2023-01-24T01:19:37.288Z,99325.44
2023-01-24T01:22:04.263Z,99323.88
2023-01-24T01:24:31.364Z,99321.44
2023-01-24T01:26:58.421Z,99327.38
2023-01-24T01:29:25.438Z,99328.94
2023-01-24T01:31:52.644Z,99324.53
2023-01-24T01:34:19.873Z,99326.94
2023-01-24T01:36:46.973Z,99332.47
2023-01-24T01:39:15.035Z,99332.91
2023-01-24T01:41:42.288Z,99330.19
2023-01-24T01:44:49.273Z,99323.88
2023-01-24T01:47:31.428Z,99333.38
2023-01-24T01:50:06.630Z,99338.94
2023-01-24T01:52:40.429Z,99332.59
2023-01-24T01:55:09.414Z,99337.72
2023-01-24T01:57:37.443Z,99323.88
2023-01-24T02:00:13.285Z,99334.13
2023-01-24T02:02:44.432Z,99330.94
2023-01-24T02:05:14.793Z,99324.28
2023-01-24T02:07:47.899Z,99329.41
2023-01-24T02:10:18.829Z,99338.94
2023-01-24T02:12:48.241Z,99341.31
2023-01-24T02:15:37.579Z,99339.78
2023-01-24T02:18:06.091Z,99338.56
2023-01-24T02:20:47.380Z,99342.91
2023-01-24T02:23:20.151Z,99340.97
2023-01-24T02:26:09.614Z,99339.78
2023-01-24T02:28:38.346Z,99335.84
2023-01-24T02:31:06.086Z,99340.97
2023-01-24T02:33:35.161Z,99346.13
2023-01-24T02:36:12.524Z,99342.16
2023-01-24T02:38:41.396Z,99352.41
2023-01-24T02:41:09.647Z,99357.16
2023-01-24T02:43:43.792Z,99356.31
2023-01-24T02:46:11.144Z,99349.97
2023-01-24T02:48:38.445Z,99358.72
2023-01-24T02:51:24.367Z,99354.72
2023-01-24T02:53:51.606Z,99348.38
2023-01-24T02:56:37.320Z,99347.25
2023-01-24T02:59:04.605Z,99351.16
2023-01-24T03:01:33.799Z,99350.03
2023-01-24T03:04:01.263Z,99357.22
2023-01-24T03:06:28.653Z,99351.78
2023-01-24T03:08:55.782Z,99348.28
2023-01-24T03:11:37.293Z,99344.78
2023-01-24T03:14:22.729Z,99339.69
2023-01-24T03:17:08.459Z,99351.97
2023-01-24T03:19:54.249Z,99341.28
2023-01-24T03:22:40.977Z,99336.53
2023-01-24T03:25:27.255Z,99336.09
2023-01-24T03:28:12.934Z,99334.09
2023-01-24T03:30:58.488Z,99331.34
2023-01-24T03:33:45.127Z,99329.00
2023-01-24T03:36:20.756Z,99328.22
2023-01-24T03:39:12.258Z,99337.78
2023-01-24T03:41:39.266Z,99342.59
2023-01-24T03:44:06.567Z,99335.47
2023-01-24T03:46:33.586Z,99335.41
2023-01-24T03:49:00.673Z,99352.09
2023-01-24T03:51:51.151Z,99338.69
2023-01-24T03:54:18.890Z,99334.00
2023-01-24T03:56:55.343Z,99340.34
2023-01-24T03:59:26.151Z,99338.78
2023-01-24T04:01:53.367Z,99338.78
2023-01-24T04:04:53.300Z,99348.19
2023-01-24T04:07:27.034Z,99346.63
2023-01-24T04:10:01.920Z,99356.50
2023-01-24T04:12:33.521Z,99362.00
2023-01-24T04:15:01.505Z,99356.91
2023-01-24T04:17:29.071Z,99356.91
2023-01-24T04:19:56.888Z,99373.94
2023-01-24T04:22:25.450Z,99365.63
2023-01-24T04:24:55.305Z,99360.13
2023-01-24T04:27:25.067Z,99362.50
2023-01-24T04:30:11.921Z,99362.63
2023-01-24T04:32:44.750Z,99363.44
2023-01-24T04:35:21.340Z,99367.41
2023-01-24T04:37:51.482Z,99356.34
2023-01-24T04:40:32.662Z,99355.88
2023-01-24T04:42:59.829Z,99359.38
2023-01-24T04:45:29.016Z,99352.97
2023-01-24T04:47:59.517Z,99350.56
2023-01-24T04:50:27.162Z,99363.19
2023-01-24T04:52:54.932Z,99363.13
2023-01-24T04:55:24.422Z,99367.03
2023-01-24T04:57:52.943Z,99363.13
2023-01-24T05:00:20.795Z,99361.16
2023-01-24T05:02:54.236Z,99366.69
2023-01-24T05:05:23.245Z,99361.19
2023-01-24T05:07:51.180Z,99363.53
2023-01-24T05:10:22.495Z,99367.09
2023-01-24T05:12:49.541Z,99359.22
2023-01-24T05:15:23.620Z,99362.34
2023-01-24T05:17:51.572Z,99360.34
2023-01-24T05:20:20.820Z,99367.03
2023-01-24T05:22:50.051Z,99362.34
2023-01-24T05:25:17.823Z,99360.03
2023-01-24T05:27:45.478Z,99358.03
2023-01-24T05:30:14.480Z,99364.03
2023-01-24T05:32:41.608Z,99360.13
2023-01-24T05:35:09.706Z,99356.94
2023-01-24T05:37:41.029Z,99355.72
2023-01-24T05:40:10.407Z,99358.09
2023-01-24T05:42:42.261Z,99350.63
2023-01-24T05:45:10.943Z,99352.66
2023-01-24T05:47:38.097Z,99349.94
2023-01-24T05:50:07.103Z,99355.50
2023-01-24T05:52:34.175Z,99357.91
2023-01-24T05:55:01.293Z,99356.38
2023-01-24T05:57:38.362Z,99358.38
2023-01-24T06:00:23.739Z,99365.84
2023-01-24T06:03:23.320Z,99368.59
2023-01-24T06:05:54.639Z,99365.44
2023-01-24T06:08:22.606Z,99365.75
2023-01-24T06:10:50.554Z,99361.78
2023-01-24T06:13:20.418Z,99360.97
2023-01-24T06:15:47.473Z,99364.09
2023-01-24T06:18:18.115Z,99372.34
2023-01-24T06:20:50.153Z,99369.19
2023-01-24T06:23:25.548Z,99372.34
2023-01-24T06:25:56.319Z,99378.34
2023-01-24T06:28:25.665Z,99391.75
2023-01-24T06:31:03.262Z,99378.69
2023-01-24T06:34:01.069Z,99381.47
2023-01-24T06:36:49.081Z,99387.75
2023-01-24T06:39:17.357Z,99397.19
2023-01-24T06:41:44.550Z,99400.31
2023-01-24T06:44:12.951Z,99389.22
2023-01-24T06:46:40.070Z,99391.19
2023-01-24T06:49:07.319Z,99389.59
2023-01-24T06:51:34.233Z,99401.84
2023-01-24T06:54:04.164Z,99391.91
2023-01-24T06:56:32.305Z,99392.28
2023-01-24T06:58:59.311Z,99400.97
2023-01-24T07:01:26.368Z,99405.69
2023-01-24T07:03:53.452Z,99403.28
2023-01-24T07:06:22.497Z,99400.50
2023-01-24T07:08:50.024Z,99409.19
2023-01-24T07:11:16.975Z,99411.97
2023-01-24T07:13:43.891Z,99421.53
2023-01-24T07:16:12.192Z,99415.97
2023-01-24T07:18:41.102Z,99427.06
2023-01-24T07:21:09.772Z,99415.13
2023-01-24T07:23:38.479Z,99420.63
2023-01-24T07:26:10.423Z,99418.97
2023-01-24T07:28:37.481Z,99415.75
2023-01-24T07:31:04.973Z,99419.69
2023-01-24T07:33:32.248Z,99422.41
2023-01-24T07:35:59.512Z,99430.34
2023-01-24T07:38:26.759Z,99432.03
2023-01-24T07:40:53.701Z,99420.56
2023-01-24T07:43:21.462Z,99429.31
2023-01-24T07:45:49.554Z,99428.53
2023-01-24T07:48:18.020Z,99436.06
2023-01-24T07:50:44.928Z,99426.94
2023-01-24T07:53:11.809Z,99428.53
2023-01-24T07:55:38.860Z,99439.19
2023-01-24T07:58:05.914Z,99434.88
2023-01-24T08:00:33.044Z,99432.09
2023-01-24T08:03:00.103Z,99434.03
2023-01-24T08:05:27.267Z,99437.13
2023-01-24T08:07:55.615Z,99433.50
2023-01-24T08:10:23.324Z,99433.03
2023-01-24T08:12:52.099Z,99438.88
2023-01-24T08:15:19.534Z,99438.53
2023-01-24T08:17:46.490Z,99443.31
2023-01-24T08:20:14.086Z,99445.28
2023-01-24T08:22:56.083Z,99444.94
2023-01-24T08:25:28.447Z,99449.22
2023-01-24T08:27:55.587Z,99461.84
2023-01-24T08:30:22.930Z,99461.41
2023-01-24T08:32:50.483Z,99458.97
2023-01-24T08:35:17.564Z,99463.72
2023-01-24T08:37:45.279Z,99462.53
2023-01-24T08:40:12.729Z,99461.00
2023-01-24T08:42:39.720Z,99462.25
2023-01-24T08:45:07.400Z,99477.34
2023-01-24T08:47:34.440Z,99464.66
2023-01-24T08:50:01.388Z,99467.06
2023-01-24T08:52:28.422Z,99470.19
2023-01-24T08:54:55.398Z,99474.94
2023-01-24T08:57:22.393Z,99479.75
2023-01-24T08:59:49.358Z,99485.66
2023-01-24T09:02:18.211Z,99484.47
2023-01-24T09:04:45.282Z,99483.63
2023-01-24T09:07:13.258Z,99490.00
2023-01-24T09:09:40.712Z,99499.47
2023-01-24T09:12:08.099Z,99494.72
2023-01-24T09:14:35.191Z,99489.59
2023-01-24T09:17:02.143Z,99487.97
2023-01-24T09:19:29.207Z,99489.91
2023-01-24T09:21:58.112Z,99497.03
2023-01-24T09:24:25.969Z,99504.63
2023-01-24T09:26:53.020Z,99510.16
2023-01-24T09:29:20.168Z,99507.00
2023-01-24T09:31:49.239Z,99516.09
2023-01-24T09:34:16.919Z,99508.19
2023-01-24T09:36:43.874Z,99512.94
2023-01-24T09:39:10.820Z,99514.13
2023-01-24T09:42:09.668Z,99507.41
2023-01-24T09:45:13.920Z,99522.09
2023-01-24T09:47:54.456Z,99519.41
2023-01-24T09:50:24.570Z,99520.25
2023-01-24T09:52:57.943Z,99528.09
2023-01-24T09:55:33.677Z,99524.59
2023-01-24T09:58:11.000Z,99526.59
2023-01-24T10:00:42.060Z,99521.03
2023-01-24T10:03:25.807Z,99522.91
2023-01-24T10:05:55.727Z,99519.34
2023-01-24T10:08:51.860Z,99514.69
2023-01-24T10:11:50.049Z,99520.16
2023-01-24T10:14:34.600Z,99514.59
2023-01-24T10:17:16.981Z,99524.16
2023-01-24T10:20:02.299Z,99526.03
2023-01-24T10:23:07.138Z,99522.00
2023-01-24T10:25:33.916Z,99516.84
2023-01-24T10:28:05.581Z,99527.16
2023-01-24T10:30:48.248Z,99513.63
2023-01-24T10:33:18.843Z,99503.25
2023-01-24T10:35:57.284Z,99503.59
2023-01-24T10:38:26.176Z,99500.03
2023-01-24T10:40:56.604Z,99504.00
2023-01-24T10:43:26.309Z,99497.19
2023-01-24T10:45:59.034Z,99491.22
2023-01-24T10:48:35.136Z,99487.22
2023-01-24T10:51:17.036Z,99485.56
2023-01-24T10:53:44.493Z,99473.25
2023-01-24T10:56:14.201Z,99480.72
2023-01-24T10:59:05.649Z,99478.28
2023-01-24T11:01:46.166Z,99470.41
2023-01-24T11:04:23.283Z,99474.78
2023-01-24T11:06:51.627Z,99467.66
2023-01-24T11:09:44.480Z,99468.50
2023-01-24T11:12:14.497Z,99474.44
2023-01-24T11:14:41.643Z,99462.53
2023-01-24T11:17:31.494Z,99468.88
2023-01-24T11:20:01.779Z,99472.00
2023-01-24T11:22:36.148Z,99464.00
2023-01-24T11:25:05.500Z,99461.53
2023-01-24T11:27:32.922Z,99465.41
2023-01-24T11:30:22.837Z,99465.84
2023-01-24T11:33:14.850Z,99469.03
2023-01-24T11:35:53.028Z,99465.06
2023-01-24T11:38:35.130Z,99464.66
2023-01-24T11:41:05.149Z,99455.13
2023-01-24T11:43:53.293Z,99470.13
2023-01-24T11:46:33.641Z,99460.56
2023-01-24T11:49:33.041Z,99455.00
2023-01-24T11:52:22.165Z,99458.25
2023-01-24T11:55:09.437Z,99459.91
2023-01-24T11:57:53.094Z,99453.50
2023-01-24T12:00:26.350Z,99450.47
2023-01-24T12:03:11.533Z,99446.56
2023-01-24T12:05:53.846Z,99444.19
2023-01-24T12:08:42.631Z,99445.34
2023-01-24T12:11:34.229Z,99434.31
2023-01-24T12:14:17.208Z,99432.00
2023-01-24T12:17:30.356Z,99443.94
2023-01-24T12:20:30.769Z,99430.78
2023-01-24T12:23:29.828Z,99439.00
2023-01-24T12:26:18.820Z,99435.81
2023-01-24T12:28:54.621Z,99432.19
2023-01-24T12:31:47.665Z,99436.16
2023-01-24T12:34:32.422Z,99436.28
2023-01-24T12:37:06.471Z,99434.78
2023-01-24T12:39:59.659Z,99426.84
2023-01-24T12:43:02.503Z,99432.34
2023-01-24T12:45:40.508Z,99416.88
2023-01-24T12:48:19.504Z,99414.81
2023-01-24T12:51:07.257Z,99420.72
2023-01-24T12:53:39.814Z,99417.22
2023-01-24T12:56:21.014Z,99416.88
2023-01-24T12:58:51.641Z,99410.53
2023-01-24T13:01:53.997Z,99409.25
2023-01-24T13:04:59.245Z,99416.31
2023-01-24T13:07:34.708Z,99411.59
2023-01-24T13:10:43.280Z,99398.88
2023-01-24T13:13:26.607Z,99404.38
2023-01-24T13:16:25.543Z,99398.88
2023-01-24T13:19:25.156Z,99402.13
2023-01-24T13:22:30.926Z,99398.97
2023-01-24T13:25:26.228Z,99405.13
2023-01-24T13:28:22.903Z,99402.00
2023-01-24T13:31:20.017Z,99404.06
2023-01-24T13:33:52.140Z,99405.56
2023-01-24T13:36:33.790Z,99414.19
2023-01-24T13:39:03.201Z,99414.91
2023-01-24T13:41:32.291Z,99411.34
2023-01-24T13:44:08.841Z,99414.81
2023-01-24T13:46:47.529Z,99408.41
2023-01-24T13:49:31.560Z,99421.81
2023-01-24T13:52:05.099Z,99416.25
2023-01-24T13:54:41.999Z,99415.94
2023-01-24T13:57:28.958Z,99424.28
2023-01-24T14:00:22.856Z,99411.13
2023-01-24T14:02:52.489Z,99410.28
2023-01-24T14:05:44.053Z,99420.97
2023-01-24T14:08:29.016Z,99420.97
2023-01-24T14:11:10.657Z,99416.19
2023-01-24T14:13:50.211Z,99434.78
2023-01-24T14:16:29.179Z,99431.28
2023-01-24T14:19:19.970Z,99432.44
2023-01-24T14:21:59.996Z,99431.97
2023-01-24T14:24:52.956Z,99431.53
2023-01-24T14:27:26.011Z,99426.09
2023-01-24T14:30:34.709Z,99426.59
2023-01-24T14:33:22.056Z,99443.31
2023-01-24T14:35:59.367Z,99434.97
2023-01-24T14:38:28.927Z,99428.22
2023-01-24T14:40:56.527Z,99438.53
2023-01-24T14:43:40.548Z,99431.41
2023-01-24T14:46:21.755Z,99424.22
2023-01-24T14:48:48.787Z,99432.94
2023-01-24T14:51:28.113Z,99435.31
2023-01-24T14:53:56.655Z,99433.78
2023-01-24T14:56:25.424Z,99433.06
2023-01-24T14:58:59.100Z,99429.16
2023-01-24T15:01:32.008Z,99429.63
2023-01-24T15:03:59.682Z,99425.34
2023-01-24T15:06:28.750Z,99430.09
2023-01-24T15:09:04.101Z,99430.56
2023-01-24T15:11:31.396Z,99418.28
2023-01-24T15:14:04.884Z,99420.69
2023-01-24T15:16:36.335Z,99424.69
2023-01-24T15:19:17.923Z,99434.94
2023-01-24T15:21:47.565Z,99427.72
2023-01-24T15:24:24.799Z,99440.34
2023-01-24T15:26:52.666Z,99437.97
2023-01-24T15:29:41.152Z,99437.97
2023-01-24T15:32:23.423Z,99445.94
2023-01-24T15:34:50.492Z,99444.00
2023-01-24T15:37:18.971Z,99453.16
2023-01-24T15:39:46.157Z,99448.47
2023-01-24T15:42:34.980Z,99462.06
2023-01-24T15:45:03.544Z,99458.19
2023-01-24T15:47:45.809Z,99474.84
2023-01-24T15:50:42.108Z,99468.53
2023-01-24T15:53:23.090Z,99467.41
2023-01-24T15:55:51.675Z,99463.00
2023-01-24T15:58:18.938Z,99464.56
2023-01-24T16:00:57.588Z,99460.59
2023-01-24T16:03:25.017Z,99455.88
2023-01-24T16:05:52.278Z,99460.22
2023-01-24T16:08:20.199Z,99459.38
2023-01-24T16:10:48.576Z,99459.44
2023-01-24T16:13:37.495Z,99461.41
2023-01-24T16:16:11.842Z,99448.34
2023-01-24T16:18:39.055Z,99448.78
2023-01-24T16:21:06.517Z,99445.66
2023-01-24T16:23:33.538Z,99457.63
2023-01-24T16:26:00.525Z,99457.75
2023-01-24T16:28:28.771Z,99443.13
2023-01-24T16:31:02.561Z,99451.44
2023-01-24T16:33:29.624Z,99453.84
2023-01-24T16:35:56.676Z,99447.94
